Peru, Iowa
Current Conditions -  °F | °C
As of 3:55 PM on Tuesday 25 Nov 2014 (Local Time) from KI75 Reporting Station
Clear Clear  
Wind Chill: 32°   Ceiling: Unl
Heat Index: 37°   Visibility: 10mi
Dew Point: 10°   Wind: 6mph
Humidity: 33%   Direction: 180°S
Pressure: 30.06"   Gusts: NA
Location:  41.24°N, 93.94°W
Report Text: KI75 252155Z AUTO 18005KT 10SM CLR 03/M12 A3006 RMK AO2 T00261123
Loading
Personal Weather Stations






























Interactive Weather Map New forecast layout! Learn more

10-Day Weather Forecast

Advertisements
Track Severe Weather on mobile